sensor_id;sensor_type;location;lat;lon;timestamp;P1;durP1;ratioP1;P2;durP2;ratioP2
80127;SDS011;69440;52.118;5.408;2023-06-24T00:02:17;5.07;;;3.83;;
80127;SDS011;69440;52.118;5.408;2023-06-24T00:04:43;5.95;;;4.32;;
80127;SDS011;69440;52.118;5.408;2023-06-24T00:07:10;6.35;;;3.97;;
80127;SDS011;69440;52.118;5.408;2023-06-24T00:09:36;6.95;;;3.97;;
80127;SDS011;69440;52.118;5.408;2023-06-24T00:12:03;5.68;;;3.75;;
80127;SDS011;69440;52.118;5.408;2023-06-24T00:14:30;6.60;;;3.95;;
80127;SDS011;69440;52.118;5.408;2023-06-24T00:16:57;5.90;;;4.05;;
80127;SDS011;69440;52.118;5.408;2023-06-24T00:19:23;4.35;;;3.75;;
80127;SDS011;69440;52.118;5.408;2023-06-24T00:21:52;6.05;;;3.60;;
80127;SDS011;69440;52.118;5.408;2023-06-24T00:24:19;7.50;;;3.60;;
80127;SDS011;69440;52.118;5.408;2023-06-24T00:26:52;8.07;;;4.15;;
80127;SDS011;69440;52.118;5.408;2023-06-24T00:29:19;6.63;;;3.90;;
80127;SDS011;69440;52.118;5.408;2023-06-24T00:31:46;5.95;;;4.05;;
80127;SDS011;69440;52.118;5.408;2023-06-24T00:34:12;5.65;;;4.30;;
80127;SDS011;69440;52.118;5.408;2023-06-24T00:36:39;7.45;;;4.32;;
80127;SDS011;69440;52.118;5.408;2023-06-24T00:39:06;6.47;;;4.25;;
80127;SDS011;69440;52.118;5.408;2023-06-24T00:41:33;9.75;;;4.63;;
80127;SDS011;69440;52.118;5.408;2023-06-24T00:44:01;6.15;;;4.20;;
80127;SDS011;69440;52.118;5.408;2023-06-24T00:46:28;7.60;;;4.10;;
80127;SDS011;69440;52.118;5.408;2023-06-24T00:48:55;7.10;;;4.38;;
80127;SDS011;69440;52.118;5.408;2023-06-24T00:51:22;7.38;;;4.15;;
80127;SDS011;69440;52.118;5.408;2023-06-24T00:53:55;7.30;;;4.95;;
80127;SDS011;69440;52.118;5.408;2023-06-24T00:56:25;8.13;;;4.38;;
80127;SDS011;69440;52.118;5.408;2023-06-24T00:58:57;7.40;;;4.55;;
80127;SDS011;69440;52.118;5.408;2023-06-24T01:01:28;8.40;;;4.90;;
80127;SDS011;69440;52.118;5.408;2023-06-24T01:04:00;6.47;;;4.90;;
80127;SDS011;69440;52.118;5.408;2023-06-24T01:06:28;6.05;;;3.97;;
80127;SDS011;69440;52.118;5.408;2023-06-24T01:08:56;6.32;;;4.25;;
80127;SDS011;69440;52.118;5.408;2023-06-24T01:11:23;8.35;;;4.43;;
80127;SDS011;69440;52.118;5.408;2023-06-24T01:13:50;5.55;;;4.18;;
80127;SDS011;69440;52.118;5.408;2023-06-24T01:16:28;6.60;;;4.30;;
80127;SDS011;69440;52.118;5.408;2023-06-24T01:19:05;7.60;;;4.80;;
80127;SDS011;69440;52.118;5.408;2023-06-24T01:21:58;8.57;;;5.05;;
80127;SDS011;69440;52.118;5.408;2023-06-24T01:24:42;6.10;;;4.53;;
80127;SDS011;69440;52.118;5.408;2023-06-24T01:27:28;7.40;;;4.90;;
80127;SDS011;69440;52.118;5.408;2023-06-24T01:32:49;6.88;;;4.75;;
80127;SDS011;69440;52.118;5.408;2023-06-24T01:35:20;9.07;;;4.57;;
80127;SDS011;69440;52.118;5.408;2023-06-24T01:37:51;12.63;;;4.68;;
80127;SDS011;69440;52.118;5.408;2023-06-24T01:40:27;7.82;;;5.80;;
80127;SDS011;69440;52.118;5.408;2023-06-24T01:42:59;8.05;;;5.00;;
80127;SDS011;69440;52.118;5.408;2023-06-24T01:45:32;5.82;;;4.50;;
80127;SDS011;69440;52.118;5.408;2023-06-24T01:48:13;6.07;;;4.50;;
80127;SDS011;69440;52.118;5.408;2023-06-24T01:50:47;5.32;;;3.42;;
80127;SDS011;69440;52.118;5.408;2023-06-24T01:53:21;6.13;;;4.32;;
80127;SDS011;69440;52.118;5.408;2023-06-24T01:55:48;6.05;;;4.22;;
80127;SDS011;69440;52.118;5.408;2023-06-24T01:58:17;6.13;;;4.53;;
80127;SDS011;69440;52.118;5.408;2023-06-24T02:00:45;6.10;;;4.18;;
80127;SDS011;69440;52.118;5.408;2023-06-24T02:03:15;8.85;;;4.82;;
80127;SDS011;69440;52.118;5.408;2023-06-24T02:05:42;5.97;;;4.13;;
80127;SDS011;69440;52.118;5.408;2023-06-24T02:08:11;7.28;;;4.38;;
80127;SDS011;69440;52.118;5.408;2023-06-24T02:10:40;6.20;;;4.07;;
80127;SDS011;69440;52.118;5.408;2023-06-24T02:13:09;6.30;;;4.00;;
80127;SDS011;69440;52.118;5.408;2023-06-24T02:15:38;6.15;;;4.15;;
80127;SDS011;69440;52.118;5.408;2023-06-24T02:18:06;6.20;;;4.25;;
80127;SDS011;69440;52.118;5.408;2023-06-24T02:20:35;5.85;;;3.85;;
80127;SDS011;69440;52.118;5.408;2023-06-24T02:23:05;6.43;;;4.10;;
80127;SDS011;69440;52.118;5.408;2023-06-24T02:25:34;5.95;;;3.97;;
80127;SDS011;69440;52.118;5.408;2023-06-24T02:28:05;5.78;;;3.90;;
80127;SDS011;69440;52.118;5.408;2023-06-24T02:30:34;6.57;;;4.28;;
80127;SDS011;69440;52.118;5.408;2023-06-24T02:33:02;7.50;;;4.47;;
80127;SDS011;69440;52.118;5.408;2023-06-24T02:35:29;7.88;;;4.70;;
80127;SDS011;69440;52.118;5.408;2023-06-24T02:37:56;6.13;;;4.20;;
80127;SDS011;69440;52.118;5.408;2023-06-24T02:40:22;7.63;;;3.80;;
80127;SDS011;69440;52.118;5.408;2023-06-24T02:42:49;8.45;;;4.90;;
80127;SDS011;69440;52.118;5.408;2023-06-24T02:45:15;6.68;;;4.35;;
80127;SDS011;69440;52.118;5.408;2023-06-24T02:47:43;5.95;;;4.32;;
80127;SDS011;69440;52.118;5.408;2023-06-24T02:50:12;6.28;;;4.68;;
80127;SDS011;69440;52.118;5.408;2023-06-24T02:52:40;7.80;;;4.20;;
80127;SDS011;69440;52.118;5.408;2023-06-24T02:55:07;8.65;;;4.82;;
80127;SDS011;69440;52.118;5.408;2023-06-24T02:57:34;5.85;;;4.25;;
80127;SDS011;69440;52.118;5.408;2023-06-24T03:00:03;8.35;;;4.90;;
80127;SDS011;69440;52.118;5.408;2023-06-24T03:02:35;6.07;;;4.47;;
80127;SDS011;69440;52.118;5.408;2023-06-24T03:05:02;7.82;;;4.40;;
80127;SDS011;69440;52.118;5.408;2023-06-24T03:07:30;8.27;;;4.63;;
80127;SDS011;69440;52.118;5.408;2023-06-24T03:10:01;8.48;;;5.13;;
80127;SDS011;69440;52.118;5.408;2023-06-24T03:12:29;6.30;;;4.68;;
80127;SDS011;69440;52.118;5.408;2023-06-24T03:14:55;8.30;;;4.50;;
80127;SDS011;69440;52.118;5.408;2023-06-24T03:17:21;7.95;;;4.88;;
80127;SDS011;69440;52.118;5.408;2023-06-24T03:19:48;6.40;;;4.63;;
80127;SDS011;69440;52.118;5.408;2023-06-24T03:22:15;7.13;;;4.57;;
80127;SDS011;69440;52.118;5.408;2023-06-24T03:24:43;7.13;;;5.32;;
80127;SDS011;69440;52.118;5.408;2023-06-24T03:27:09;7.28;;;4.97;;
80127;SDS011;69440;52.118;5.408;2023-06-24T03:29:36;7.63;;;5.13;;
80127;SDS011;69440;52.118;5.408;2023-06-24T03:32:02;7.05;;;5.30;;
80127;SDS011;69440;52.118;5.408;2023-06-24T03:34:29;8.90;;;5.05;;
80127;SDS011;69440;52.118;5.408;2023-06-24T03:36:56;7.45;;;4.47;;
80127;SDS011;69440;52.118;5.408;2023-06-24T03:39:23;6.75;;;5.40;;
80127;SDS011;69440;52.118;5.408;2023-06-24T03:41:49;5.72;;;4.53;;
80127;SDS011;69440;52.118;5.408;2023-06-24T03:44:15;6.63;;;4.70;;
80127;SDS011;69440;52.118;5.408;2023-06-24T03:46:42;6.70;;;4.65;;
80127;SDS011;69440;52.118;5.408;2023-06-24T03:49:08;8.35;;;5.05;;
80127;SDS011;69440;52.118;5.408;2023-06-24T03:51:35;8.90;;;5.25;;
80127;SDS011;69440;52.118;5.408;2023-06-24T03:54:02;10.05;;;4.63;;
80127;SDS011;69440;52.118;5.408;2023-06-24T03:56:28;7.57;;;5.18;;
80127;SDS011;69440;52.118;5.408;2023-06-24T03:58:54;8.65;;;5.07;;
80127;SDS011;69440;52.118;5.408;2023-06-24T04:01:21;8.43;;;4.75;;
80127;SDS011;69440;52.118;5.408;2023-06-24T04:03:47;6.78;;;4.57;;
80127;SDS011;69440;52.118;5.408;2023-06-24T04:06:14;8.20;;;4.90;;
80127;SDS011;69440;52.118;5.408;2023-06-24T04:08:40;5.97;;;4.47;;
80127;SDS011;69440;52.118;5.408;2023-06-24T04:11:09;5.72;;;4.38;;
80127;SDS011;69440;52.118;5.408;2023-06-24T04:13:36;7.47;;;5.03;;
80127;SDS011;69440;52.118;5.408;2023-06-24T04:16:02;9.27;;;5.43;;
80127;SDS011;69440;52.118;5.408;2023-06-24T04:18:29;7.75;;;5.88;;
80127;SDS011;69440;52.118;5.408;2023-06-24T04:20:55;6.90;;;5.20;;
80127;SDS011;69440;52.118;5.408;2023-06-24T04:23:22;9.77;;;5.00;;
80127;SDS011;69440;52.118;5.408;2023-06-24T04:25:49;9.45;;;5.55;;
80127;SDS011;69440;52.118;5.408;2023-06-24T04:28:16;7.75;;;5.82;;
80127;SDS011;69440;52.118;5.408;2023-06-24T04:30:42;8.30;;;5.22;;
80127;SDS011;69440;52.118;5.408;2023-06-24T04:33:09;7.05;;;4.95;;
80127;SDS011;69440;52.118;5.408;2023-06-24T04:35:35;8.43;;;5.03;;
80127;SDS011;69440;52.118;5.408;2023-06-24T04:38:03;11.90;;;5.72;;
80127;SDS011;69440;52.118;5.408;2023-06-24T04:40:29;8.75;;;5.28;;
80127;SDS011;69440;52.118;5.408;2023-06-24T04:42:56;9.02;;;5.75;;
80127;SDS011;69440;52.118;5.408;2023-06-24T04:45:23;9.48;;;5.95;;
80127;SDS011;69440;52.118;5.408;2023-06-24T04:47:49;9.10;;;5.70;;
80127;SDS011;69440;52.118;5.408;2023-06-24T04:50:17;8.80;;;5.53;;
80127;SDS011;69440;52.118;5.408;2023-06-24T04:52:43;8.95;;;5.47;;
80127;SDS011;69440;52.118;5.408;2023-06-24T04:55:11;8.90;;;5.85;;
80127;SDS011;69440;52.118;5.408;2023-06-24T04:57:37;9.23;;;5.60;;
80127;SDS011;69440;52.118;5.408;2023-06-24T05:00:04;9.40;;;5.65;;
80127;SDS011;69440;52.118;5.408;2023-06-24T05:02:31;9.65;;;5.63;;
80127;SDS011;69440;52.118;5.408;2023-06-24T05:04:57;8.60;;;5.80;;
80127;SDS011;69440;52.118;5.408;2023-06-24T05:07:24;7.82;;;5.63;;
80127;SDS011;69440;52.118;5.408;2023-06-24T05:09:51;8.95;;;5.90;;
80127;SDS011;69440;52.118;5.408;2023-06-24T05:12:18;8.60;;;5.68;;
80127;SDS011;69440;52.118;5.408;2023-06-24T05:14:48;9.85;;;5.53;;
80127;SDS011;69440;52.118;5.408;2023-06-24T05:17:15;7.55;;;5.30;;
80127;SDS011;69440;52.118;5.408;2023-06-24T05:19:42;8.77;;;5.88;;
80127;SDS011;69440;52.118;5.408;2023-06-24T05:22:09;8.70;;;5.00;;
80127;SDS011;69440;52.118;5.408;2023-06-24T05:24:35;7.32;;;4.93;;
80127;SDS011;69440;52.118;5.408;2023-06-24T05:27:05;7.72;;;5.28;;
80127;SDS011;69440;52.118;5.408;2023-06-24T05:29:33;6.90;;;5.30;;
80127;SDS011;69440;52.118;5.408;2023-06-24T05:32:00;8.02;;;4.93;;
80127;SDS011;69440;52.118;5.408;2023-06-24T05:34:30;7.18;;;4.95;;
80127;SDS011;69440;52.118;5.408;2023-06-24T05:36:56;9.05;;;5.05;;
80127;SDS011;69440;52.118;5.408;2023-06-24T05:39:23;8.15;;;4.93;;
80127;SDS011;69440;52.118;5.408;2023-06-24T05:41:50;7.03;;;4.60;;
80127;SDS011;69440;52.118;5.408;2023-06-24T05:44:17;8.15;;;4.43;;
80127;SDS011;69440;52.118;5.408;2023-06-24T05:46:46;5.82;;;4.68;;
80127;SDS011;69440;52.118;5.408;2023-06-24T05:49:13;6.60;;;4.07;;
80127;SDS011;69440;52.118;5.408;2023-06-24T05:51:39;6.80;;;3.58;;
80127;SDS011;69440;52.118;5.408;2023-06-24T05:54:06;7.50;;;4.82;;
80127;SDS011;69440;52.118;5.408;2023-06-24T05:56:33;6.40;;;3.60;;
80127;SDS011;69440;52.118;5.408;2023-06-24T05:59:02;6.40;;;3.40;;
80127;SDS011;69440;52.118;5.408;2023-06-24T06:01:28;6.30;;;3.20;;
80127;SDS011;69440;52.118;5.408;2023-06-24T06:03:55;4.40;;;2.80;;
80127;SDS011;69440;52.118;5.408;2023-06-24T06:06:21;7.20;;;3.17;;
80127;SDS011;69440;52.118;5.408;2023-06-24T06:08:48;5.10;;;3.10;;
80127;SDS011;69440;52.118;5.408;2023-06-24T06:11:14;5.40;;;2.90;;
80127;SDS011;69440;52.118;5.408;2023-06-24T06:13:41;5.57;;;3.50;;
80127;SDS011;69440;52.118;5.408;2023-06-24T06:16:08;8.35;;;2.95;;
80127;SDS011;69440;52.118;5.408;2023-06-24T06:18:34;5.78;;;3.78;;
80127;SDS011;69440;52.118;5.408;2023-06-24T06:21:01;4.90;;;2.90;;
80127;SDS011;69440;52.118;5.408;2023-06-24T06:23:27;6.85;;;3.30;;
80127;SDS011;69440;52.118;5.408;2023-06-24T06:25:53;6.10;;;3.30;;
80127;SDS011;69440;52.118;5.408;2023-06-24T06:28:21;7.72;;;3.28;;
80127;SDS011;69440;52.118;5.408;2023-06-24T06:30:48;5.18;;;2.90;;
80127;SDS011;69440;52.118;5.408;2023-06-24T06:33:14;5.43;;;2.80;;
80127;SDS011;69440;52.118;5.408;2023-06-24T06:35:40;6.22;;;3.10;;
80127;SDS011;69440;52.118;5.408;2023-06-24T06:38:07;6.47;;;3.03;;
80127;SDS011;69440;52.118;5.408;2023-06-24T06:40:33;5.57;;;2.90;;
80127;SDS011;69440;52.118;5.408;2023-06-24T06:43:01;5.07;;;3.05;;
80127;SDS011;69440;52.118;5.408;2023-06-24T06:45:28;5.57;;;2.50;;
80127;SDS011;69440;52.118;5.408;2023-06-24T06:47:57;4.25;;;2.60;;
80127;SDS011;69440;52.118;5.408;2023-06-24T06:50:24;4.72;;;2.72;;
80127;SDS011;69440;52.118;5.408;2023-06-24T06:52:50;4.07;;;3.10;;
80127;SDS011;69440;52.118;5.408;2023-06-24T06:55:17;5.43;;;2.65;;
80127;SDS011;69440;52.118;5.408;2023-06-24T06:57:43;6.97;;;3.30;;
80127;SDS011;69440;52.118;5.408;2023-06-24T07:00:10;5.03;;;2.80;;
80127;SDS011;69440;52.118;5.408;2023-06-24T07:02:37;7.65;;;2.60;;
80127;SDS011;69440;52.118;5.408;2023-06-24T07:05:03;4.95;;;2.83;;
80127;SDS011;69440;52.118;5.408;2023-06-24T07:07:30;3.60;;;2.42;;
80127;SDS011;69440;52.118;5.408;2023-06-24T07:09:58;5.03;;;2.70;;
80127;SDS011;69440;52.118;5.408;2023-06-24T07:12:25;4.82;;;2.97;;
80127;SDS011;69440;52.118;5.408;2023-06-24T07:14:51;4.55;;;3.00;;
80127;SDS011;69440;52.118;5.408;2023-06-24T07:17:18;5.93;;;3.00;;
80127;SDS011;69440;52.118;5.408;2023-06-24T07:19:44;6.53;;;2.78;;
80127;SDS011;69440;52.118;5.408;2023-06-24T07:22:11;5.65;;;2.70;;
80127;SDS011;69440;52.118;5.408;2023-06-24T07:24:37;4.40;;;2.30;;
80127;SDS011;69440;52.118;5.408;2023-06-24T07:27:04;4.15;;;2.58;;
80127;SDS011;69440;52.118;5.408;2023-06-24T07:29:31;4.75;;;2.90;;
80127;SDS011;69440;52.118;5.408;2023-06-24T07:31:57;6.78;;;2.72;;
80127;SDS011;69440;52.118;5.408;2023-06-24T07:34:24;7.40;;;3.00;;
80127;SDS011;69440;52.118;5.408;2023-06-24T07:36:50;5.63;;;3.03;;
80127;SDS011;69440;52.118;5.408;2023-06-24T07:39:17;5.68;;;3.10;;
80127;SDS011;69440;52.118;5.408;2023-06-24T07:41:43;7.65;;;3.10;;
80127;SDS011;69440;52.118;5.408;2023-06-24T07:44:10;7.38;;;2.65;;
80127;SDS011;69440;52.118;5.408;2023-06-24T07:46:37;5.18;;;3.22;;
80127;SDS011;69440;52.118;5.408;2023-06-24T07:49:03;4.47;;;2.72;;
80127;SDS011;69440;52.118;5.408;2023-06-24T07:51:30;5.70;;;2.80;;
80127;SDS011;69440;52.118;5.408;2023-06-24T07:53:56;5.63;;;2.70;;
80127;SDS011;69440;52.118;5.408;2023-06-24T07:56:23;5.13;;;3.05;;
80127;SDS011;69440;52.118;5.408;2023-06-24T07:58:49;11.65;;;3.45;;
80127;SDS011;69440;52.118;5.408;2023-06-24T08:01:16;6.15;;;3.08;;
80127;SDS011;69440;52.118;5.408;2023-06-24T08:03:42;3.88;;;2.58;;
80127;SDS011;69440;52.118;5.408;2023-06-24T08:06:08;4.25;;;2.80;;
80127;SDS011;69440;52.118;5.408;2023-06-24T08:08:35;78.32;;;10.30;;
80127;SDS011;69440;52.118;5.408;2023-06-24T08:11:02;4.43;;;2.78;;
80127;SDS011;69440;52.118;5.408;2023-06-24T08:13:29;4.63;;;2.78;;
80127;SDS011;69440;52.118;5.408;2023-06-24T08:15:56;6.15;;;2.85;;
80127;SDS011;69440;52.118;5.408;2023-06-24T08:18:23;6.90;;;3.10;;
80127;SDS011;69440;52.118;5.408;2023-06-24T08:20:49;4.97;;;2.80;;
80127;SDS011;69440;52.118;5.408;2023-06-24T08:23:16;11.07;;;3.17;;
80127;SDS011;69440;52.118;5.408;2023-06-24T08:25:42;13.25;;;3.10;;
80127;SDS011;69440;52.118;5.408;2023-06-24T08:28:09;5.10;;;3.17;;
80127;SDS011;69440;52.118;5.408;2023-06-24T08:30:36;4.88;;;2.75;;
80127;SDS011;69440;52.118;5.408;2023-06-24T08:33:03;4.72;;;3.15;;
80127;SDS011;69440;52.118;5.408;2023-06-24T08:35:29;5.85;;;3.05;;
80127;SDS011;69440;52.118;5.408;2023-06-24T08:37:56;5.60;;;3.05;;
80127;SDS011;69440;52.118;5.408;2023-06-24T08:40:22;4.70;;;3.22;;
80127;SDS011;69440;52.118;5.408;2023-06-24T08:42:49;6.30;;;3.25;;
80127;SDS011;69440;52.118;5.408;2023-06-24T08:45:15;6.00;;;3.25;;
80127;SDS011;69440;52.118;5.408;2023-06-24T08:47:42;6.13;;;3.15;;
80127;SDS011;69440;52.118;5.408;2023-06-24T08:50:12;5.72;;;2.85;;
80127;SDS011;69440;52.118;5.408;2023-06-24T08:52:42;7.35;;;2.97;;
80127;SDS011;69440;52.118;5.408;2023-06-24T08:55:12;5.38;;;3.15;;
80127;SDS011;69440;52.118;5.408;2023-06-24T08:57:42;5.30;;;3.25;;
80127;SDS011;69440;52.118;5.408;2023-06-24T09:00:09;6.68;;;3.10;;
80127;SDS011;69440;52.118;5.408;2023-06-24T09:02:37;7.70;;;3.20;;
80127;SDS011;69440;52.118;5.408;2023-06-24T09:05:05;5.85;;;3.28;;
80127;SDS011;69440;52.118;5.408;2023-06-24T09:07:32;7.43;;;3.10;;
80127;SDS011;69440;52.118;5.408;2023-06-24T09:09:59;6.95;;;3.50;;
80127;SDS011;69440;52.118;5.408;2023-06-24T09:12:31;5.20;;;3.20;;
80127;SDS011;69440;52.118;5.408;2023-06-24T09:14:58;7.22;;;4.50;;
80127;SDS011;69440;52.118;5.408;2023-06-24T09:17:25;5.25;;;3.47;;
80127;SDS011;69440;52.118;5.408;2023-06-24T09:20:02;6.03;;;3.50;;
80127;SDS011;69440;52.118;5.408;2023-06-24T09:22:30;7.32;;;3.40;;
80127;SDS011;69440;52.118;5.408;2023-06-24T09:24:57;6.32;;;3.10;;
80127;SDS011;69440;52.118;5.408;2023-06-24T09:27:30;4.82;;;3.38;;
80127;SDS011;69440;52.118;5.408;2023-06-24T09:29:57;6.70;;;3.42;;
80127;SDS011;69440;52.118;5.408;2023-06-24T09:32:30;7.78;;;3.60;;
80127;SDS011;69440;52.118;5.408;2023-06-24T09:34:57;5.55;;;3.30;;
80127;SDS011;69440;52.118;5.408;2023-06-24T09:37:29;4.88;;;2.95;;
80127;SDS011;69440;52.118;5.408;2023-06-24T09:39:57;7.70;;;3.75;;
80127;SDS011;69440;52.118;5.408;2023-06-24T09:42:24;5.28;;;3.42;;
80127;SDS011;69440;52.118;5.408;2023-06-24T09:44:54;5.30;;;3.17;;
80127;SDS011;69440;52.118;5.408;2023-06-24T09:47:21;5.38;;;3.10;;
80127;SDS011;69440;52.118;5.408;2023-06-24T09:49:51;5.35;;;3.15;;
80127;SDS011;69440;52.118;5.408;2023-06-24T09:52:18;7.10;;;3.30;;
80127;SDS011;69440;52.118;5.408;2023-06-24T09:54:46;5.75;;;3.40;;
80127;SDS011;69440;52.118;5.408;2023-06-24T09:57:19;6.10;;;4.10;;
80127;SDS011;69440;52.118;5.408;2023-06-24T09:59:50;7.15;;;3.63;;
80127;SDS011;69440;52.118;5.408;2023-06-24T10:02:18;5.55;;;3.70;;
80127;SDS011;69440;52.118;5.408;2023-06-24T10:04:44;5.47;;;3.53;;
80127;SDS011;69440;52.118;5.408;2023-06-24T10:07:13;7.50;;;4.15;;
80127;SDS011;69440;52.118;5.408;2023-06-24T10:09:40;5.72;;;3.22;;
80127;SDS011;69440;52.118;5.408;2023-06-24T10:12:07;6.30;;;3.47;;
80127;SDS011;69440;52.118;5.408;2023-06-24T10:14:34;6.63;;;3.60;;
80127;SDS011;69440;52.118;5.408;2023-06-24T10:17:02;8.30;;;3.70;;
80127;SDS011;69440;52.118;5.408;2023-06-24T10:19:30;8.35;;;3.72;;
80127;SDS011;69440;52.118;5.408;2023-06-24T10:22:06;5.43;;;3.47;;
80127;SDS011;69440;52.118;5.408;2023-06-24T10:24:37;6.07;;;3.35;;
80127;SDS011;69440;52.118;5.408;2023-06-24T10:27:09;5.43;;;3.60;;
80127;SDS011;69440;52.118;5.408;2023-06-24T10:29:39;7.03;;;3.70;;
80127;SDS011;69440;52.118;5.408;2023-06-24T10:32:06;8.85;;;4.30;;
80127;SDS011;69440;52.118;5.408;2023-06-24T10:34:34;7.03;;;4.32;;
80127;SDS011;69440;52.118;5.408;2023-06-24T10:45:14;5.85;;;3.60;;
80127;SDS011;69440;52.118;5.408;2023-06-24T10:50:11;4.65;;;3.33;;
80127;SDS011;69440;52.118;5.408;2023-06-24T10:52:40;5.88;;;4.55;;
80127;SDS011;69440;52.118;5.408;2023-06-24T10:55:13;6.18;;;4.30;;
80127;SDS011;69440;52.118;5.408;2023-06-24T10:57:41;7.40;;;4.13;;
80127;SDS011;69440;52.118;5.408;2023-06-24T11:00:08;5.65;;;3.75;;
80127;SDS011;69440;52.118;5.408;2023-06-24T11:02:35;6.35;;;3.85;;
80127;SDS011;69440;52.118;5.408;2023-06-24T11:05:03;7.25;;;4.00;;
80127;SDS011;69440;52.118;5.408;2023-06-24T11:07:32;7.70;;;3.90;;
80127;SDS011;69440;52.118;5.408;2023-06-24T11:10:02;7.03;;;4.03;;
80127;SDS011;69440;52.118;5.408;2023-06-24T11:12:35;7.75;;;4.82;;
80127;SDS011;69440;52.118;5.408;2023-06-24T11:15:04;5.68;;;4.15;;
80127;SDS011;69440;52.118;5.408;2023-06-24T11:17:32;8.88;;;5.13;;
80127;SDS011;69440;52.118;5.408;2023-06-24T11:20:00;14.00;;;4.90;;
80127;SDS011;69440;52.118;5.408;2023-06-24T11:22:27;5.70;;;3.42;;
80127;SDS011;69440;52.118;5.408;2023-06-24T11:24:54;6.68;;;4.30;;
80127;SDS011;69440;52.118;5.408;2023-06-24T11:27:29;5.22;;;3.83;;
80127;SDS011;69440;52.118;5.408;2023-06-24T11:30:00;9.57;;;5.28;;
80127;SDS011;69440;52.118;5.408;2023-06-24T11:32:40;6.35;;;4.47;;
80127;SDS011;69440;52.118;5.408;2023-06-24T11:35:09;7.82;;;4.30;;
80127;SDS011;69440;52.118;5.408;2023-06-24T11:37:36;6.78;;;4.32;;
80127;SDS011;69440;52.118;5.408;2023-06-24T11:40:06;6.97;;;4.38;;
80127;SDS011;69440;52.118;5.408;2023-06-24T11:42:37;7.88;;;4.70;;
80127;SDS011;69440;52.118;5.408;2023-06-24T11:45:09;7.68;;;4.90;;
80127;SDS011;69440;52.118;5.408;2023-06-24T11:47:41;5.63;;;3.50;;
80127;SDS011;69440;52.118;5.408;2023-06-24T11:50:08;5.57;;;3.95;;
80127;SDS011;69440;52.118;5.408;2023-06-24T11:55:02;7.00;;;4.30;;
80127;SDS011;69440;52.118;5.408;2023-06-24T11:57:48;5.97;;;3.97;;
80127;SDS011;69440;52.118;5.408;2023-06-24T12:00:16;6.65;;;4.00;;
80127;SDS011;69440;52.118;5.408;2023-06-24T12:02:43;7.90;;;4.20;;
80127;SDS011;69440;52.118;5.408;2023-06-24T12:05:09;6.07;;;4.13;;
80127;SDS011;69440;52.118;5.408;2023-06-24T12:07:36;7.45;;;3.83;;
80127;SDS011;69440;52.118;5.408;2023-06-24T12:10:02;5.82;;;3.47;;
80127;SDS011;69440;52.118;5.408;2023-06-24T12:12:29;4.75;;;3.60;;
80127;SDS011;69440;52.118;5.408;2023-06-24T12:14:56;6.63;;;4.28;;
80127;SDS011;69440;52.118;5.408;2023-06-24T12:17:22;6.03;;;4.10;;
80127;SDS011;69440;52.118;5.408;2023-06-24T12:19:49;6.00;;;3.97;;
80127;SDS011;69440;52.118;5.408;2023-06-24T12:22:15;7.28;;;3.90;;
80127;SDS011;69440;52.118;5.408;2023-06-24T12:24:41;7.20;;;3.90;;
80127;SDS011;69440;52.118;5.408;2023-06-24T12:27:08;6.38;;;3.92;;
80127;SDS011;69440;52.118;5.408;2023-06-24T12:29:35;5.25;;;3.85;;
80127;SDS011;69440;52.118;5.408;2023-06-24T12:32:01;7.32;;;4.05;;
80127;SDS011;69440;52.118;5.408;2023-06-24T12:34:28;6.78;;;4.05;;
80127;SDS011;69440;52.118;5.408;2023-06-24T12:36:54;7.07;;;4.28;;
80127;SDS011;69440;52.118;5.408;2023-06-24T12:39:21;7.15;;;3.80;;
80127;SDS011;69440;52.118;5.408;2023-06-24T12:41:47;5.70;;;3.78;;
80127;SDS011;69440;52.118;5.408;2023-06-24T12:44:14;7.25;;;4.15;;
80127;SDS011;69440;52.118;5.408;2023-06-24T12:46:40;7.00;;;4.00;;
80127;SDS011;69440;52.118;5.408;2023-06-24T12:49:06;5.53;;;3.80;;
80127;SDS011;69440;52.118;5.408;2023-06-24T12:51:33;6.05;;;4.43;;
80127;SDS011;69440;52.118;5.408;2023-06-24T12:53:59;5.57;;;4.10;;
80127;SDS011;69440;52.118;5.408;2023-06-24T12:56:26;6.68;;;4.70;;
80127;SDS011;69440;52.118;5.408;2023-06-24T12:58:52;6.78;;;3.95;;
80127;SDS011;69440;52.118;5.408;2023-06-24T13:01:19;6.88;;;4.32;;
80127;SDS011;69440;52.118;5.408;2023-06-24T13:03:45;6.43;;;3.95;;
80127;SDS011;69440;52.118;5.408;2023-06-24T13:06:13;5.95;;;4.28;;
80127;SDS011;69440;52.118;5.408;2023-06-24T13:08:40;5.10;;;3.92;;
80127;SDS011;69440;52.118;5.408;2023-06-24T13:11:07;6.75;;;4.22;;
80127;SDS011;69440;52.118;5.408;2023-06-24T13:13:34;6.32;;;4.10;;
80127;SDS011;69440;52.118;5.408;2023-06-24T13:16:00;5.28;;;3.38;;
80127;SDS011;69440;52.118;5.408;2023-06-24T13:18:27;6.80;;;3.85;;
80127;SDS011;69440;52.118;5.408;2023-06-24T13:20:54;5.47;;;3.95;;
80127;SDS011;69440;52.118;5.408;2023-06-24T13:23:39;5.30;;;3.60;;
80127;SDS011;69440;52.118;5.408;2023-06-24T13:26:06;5.25;;;3.67;;
80127;SDS011;69440;52.118;5.408;2023-06-24T13:28:33;7.20;;;3.70;;
80127;SDS011;69440;52.118;5.408;2023-06-24T13:30:59;5.25;;;3.65;;
80127;SDS011;69440;52.118;5.408;2023-06-24T13:33:26;4.57;;;3.42;;
80127;SDS011;69440;52.118;5.408;2023-06-24T13:35:52;5.13;;;3.50;;
80127;SDS011;69440;52.118;5.408;2023-06-24T13:38:20;5.38;;;3.85;;
80127;SDS011;69440;52.118;5.408;2023-06-24T13:40:47;5.20;;;3.65;;
80127;SDS011;69440;52.118;5.408;2023-06-24T13:43:13;5.65;;;3.53;;
80127;SDS011;69440;52.118;5.408;2023-06-24T13:45:41;5.70;;;3.72;;
80127;SDS011;69440;52.118;5.408;2023-06-24T13:48:08;6.35;;;3.40;;
80127;SDS011;69440;52.118;5.408;2023-06-24T13:50:34;6.13;;;3.30;;
80127;SDS011;69440;52.118;5.408;2023-06-24T13:53:02;5.88;;;3.55;;
80127;SDS011;69440;52.118;5.408;2023-06-24T13:55:28;7.25;;;3.95;;
80127;SDS011;69440;52.118;5.408;2023-06-24T13:57:55;6.47;;;3.90;;
80127;SDS011;69440;52.118;5.408;2023-06-24T14:00:21;7.72;;;3.88;;
80127;SDS011;69440;52.118;5.408;2023-06-24T14:02:48;6.60;;;3.72;;
80127;SDS011;69440;52.118;5.408;2023-06-24T14:05:15;5.18;;;3.10;;
80127;SDS011;69440;52.118;5.408;2023-06-24T14:07:41;4.68;;;3.75;;
80127;SDS011;69440;52.118;5.408;2023-06-24T14:10:08;5.50;;;3.70;;
80127;SDS011;69440;52.118;5.408;2023-06-24T14:12:35;4.82;;;3.63;;
80127;SDS011;69440;52.118;5.408;2023-06-24T14:15:01;8.45;;;4.03;;
80127;SDS011;69440;52.118;5.408;2023-06-24T14:17:28;6.57;;;3.33;;
80127;SDS011;69440;52.118;5.408;2023-06-24T14:19:55;4.60;;;3.60;;
80127;SDS011;69440;52.118;5.408;2023-06-24T14:22:21;4.32;;;3.58;;
80127;SDS011;69440;52.118;5.408;2023-06-24T14:24:48;5.00;;;3.72;;
80127;SDS011;69440;52.118;5.408;2023-06-24T14:27:16;6.78;;;3.53;;
80127;SDS011;69440;52.118;5.408;2023-06-24T14:29:43;5.13;;;3.28;;
80127;SDS011;69440;52.118;5.408;2023-06-24T14:32:09;6.50;;;4.13;;
80127;SDS011;69440;52.118;5.408;2023-06-24T14:34:36;4.78;;;3.63;;
80127;SDS011;69440;52.118;5.408;2023-06-24T14:37:02;5.72;;;3.70;;
80127;SDS011;69440;52.118;5.408;2023-06-24T14:39:29;5.80;;;4.07;;
80127;SDS011;69440;52.118;5.408;2023-06-24T14:41:56;6.03;;;3.83;;
80127;SDS011;69440;52.118;5.408;2023-06-24T14:44:22;6.38;;;3.97;;
80127;SDS011;69440;52.118;5.408;2023-06-24T14:46:49;5.85;;;3.47;;
80127;SDS011;69440;52.118;5.408;2023-06-24T14:49:15;5.75;;;3.90;;
80127;SDS011;69440;52.118;5.408;2023-06-24T14:51:43;5.63;;;3.78;;
80127;SDS011;69440;52.118;5.408;2023-06-24T14:54:10;4.50;;;3.53;;
80127;SDS011;69440;52.118;5.408;2023-06-24T14:56:36;5.40;;;4.13;;
80127;SDS011;69440;52.118;5.408;2023-06-24T14:59:03;5.20;;;3.72;;
80127;SDS011;69440;52.118;5.408;2023-06-24T15:01:29;7.30;;;3.88;;
80127;SDS011;69440;52.118;5.408;2023-06-24T15:03:56;6.47;;;3.92;;
80127;SDS011;69440;52.118;5.408;2023-06-24T15:06:22;4.28;;;3.45;;
80127;SDS011;69440;52.118;5.408;2023-06-24T15:08:49;9.88;;;3.55;;